createdAt,value
2023-02-09T00:00:13.058Z,-1.52
2023-02-09T00:05:20.011Z,-1.51
2023-02-09T00:10:24.021Z,-1.49
2023-02-09T00:15:26.128Z,-1.49
2023-02-09T00:20:27.814Z,-1.46
2023-02-09T00:25:29.495Z,-1.55
2023-02-09T00:30:31.222Z,-1.54
2023-02-09T00:35:35.197Z,-1.54
2023-02-09T00:40:39.924Z,-1.57
2023-02-09T00:45:43.684Z,-1.59
2023-02-09T00:50:47.736Z,-1.60
2023-02-09T00:55:52.684Z,-1.62
2023-02-09T01:00:54.433Z,-1.59
2023-02-09T01:05:58.836Z,-1.59
2023-02-09T01:11:02.772Z,-1.56
2023-02-09T01:16:13.629Z,-1.50
2023-02-09T01:21:18.987Z,-1.52
2023-02-09T01:26:23.050Z,-1.50
2023-02-09T01:31:30.314Z,-1.39
2023-02-09T01:36:35.725Z,-1.36
2023-02-09T01:41:40.052Z,-1.40
2023-02-09T01:46:44.828Z,-1.35
2023-02-09T01:52:04.994Z,-1.35
2023-02-09T01:57:10.783Z,-1.43
2023-02-09T02:02:12.848Z,-1.48
2023-02-09T02:07:45.698Z,-1.50
2023-02-09T02:12:47.494Z,-1.59
2023-02-09T02:18:04.110Z,-1.57
2023-02-09T02:23:38.225Z,-1.52
2023-02-09T02:29:05.375Z,-1.50
2023-02-09T02:34:15.371Z,-1.49
2023-02-09T02:39:24.870Z,-1.40
2023-02-09T02:44:30.564Z,-1.25
2023-02-09T02:50:00.216Z,-1.27
2023-02-09T02:55:08.512Z,-1.15
2023-02-09T03:00:21.125Z,-1.06
2023-02-09T03:05:29.085Z,-0.96
2023-02-09T03:10:34.785Z,-0.82
2023-02-09T03:16:03.708Z,-0.81
2023-02-09T03:21:14.441Z,-0.78
2023-02-09T03:26:21.609Z,-0.80
2023-02-09T03:31:24.131Z,-0.77
2023-02-09T03:36:25.939Z,-0.82
2023-02-09T03:41:28.623Z,-0.85
2023-02-09T03:46:30.355Z,-0.88
2023-02-09T03:51:34.407Z,-0.98
2023-02-09T03:56:41.939Z,-0.99
2023-02-09T04:01:46.057Z,-1.07
2023-02-09T04:06:48.299Z,-1.02
2023-02-09T04:11:51.334Z,-1.03
2023-02-09T04:16:55.298Z,-1.01
2023-02-09T04:22:01.035Z,-1.02
2023-02-09T04:27:05.447Z,-1.04
2023-02-09T04:32:07.181Z,-1.13
2023-02-09T04:37:11.356Z,-1.17
2023-02-09T04:42:15.207Z,-1.21
2023-02-09T04:47:16.844Z,-1.29
2023-02-09T04:52:22.374Z,-1.26
2023-02-09T04:57:47.176Z,-1.29
2023-02-09T05:02:51.760Z,-1.29
2023-02-09T05:07:53.433Z,-1.30
2023-02-09T05:12:55.225Z,-1.30
2023-02-09T05:17:59.280Z,-1.37
2023-02-09T05:23:03.219Z,-1.40
2023-02-09T05:28:07.671Z,-1.46
2023-02-09T05:33:11.847Z,-1.49
2023-02-09T05:38:13.749Z,-1.54
2023-02-09T05:43:18.428Z,-1.54
2023-02-09T05:48:22.333Z,-1.53
2023-02-09T05:53:26.276Z,-1.51
2023-02-09T05:58:27.930Z,-1.53
2023-02-09T06:03:29.752Z,-1.50
2023-02-09T06:08:38.312Z,-1.55
2023-02-09T06:13:40.017Z,-1.56
2023-02-09T06:18:41.700Z,-1.58
2023-02-09T06:23:48.330Z,-1.63
2023-02-09T06:28:53.442Z,-1.62
2023-02-09T06:33:57.256Z,-1.62
2023-02-09T06:39:10.075Z,-1.58
2023-02-09T06:44:13.064Z,-1.58
2023-02-09T06:49:18.836Z,-1.56
2023-02-09T06:54:23.250Z,-1.43
2023-02-09T06:59:25.659Z,-1.26
2023-02-09T07:04:27.389Z,-0.98
2023-02-09T07:09:32.336Z,-1.20
2023-02-09T07:14:37.065Z,-1.27
2023-02-09T07:19:41.167Z,-1.29
2023-02-09T07:24:44.921Z,-1.32
2023-02-09T07:29:46.626Z,-1.32
2023-02-09T07:34:48.527Z,-1.23
2023-02-09T07:39:52.559Z,-1.25
2023-02-09T07:44:56.630Z,-1.21
2023-02-09T07:50:00.857Z,-1.17
2023-02-09T07:55:05.242Z,-1.14
2023-02-09T08:00:07.491Z,-1.07
2023-02-09T08:05:27.145Z,-1.00
2023-02-09T08:10:31.152Z,-0.93
2023-02-09T08:15:49.666Z,-0.88
2023-02-09T08:20:52.234Z,-0.81
2023-02-09T08:25:57.026Z,-0.74
2023-02-09T08:31:03.668Z,-0.66
2023-02-09T08:36:05.920Z,-0.53
2023-02-09T08:41:09.260Z,-0.40
2023-02-09T08:46:16.024Z,-0.24
2023-02-09T08:51:18.422Z,-0.13
2023-02-09T08:56:25.335Z,-0.04
2023-02-09T09:01:30.859Z,0.04
2023-02-09T09:06:33.077Z,0.13
2023-02-09T09:11:34.930Z,0.23
2023-02-09T09:16:41.908Z,0.36
2023-02-09T09:21:48.144Z,0.48
2023-02-09T09:26:50.124Z,0.55
2023-02-09T09:31:54.305Z,0.63
2023-02-09T09:37:03.451Z,0.72
2023-02-09T09:42:13.570Z,0.86
2023-02-09T09:47:23.368Z,0.96
2023-02-09T09:52:35.145Z,1.11
2023-02-09T09:57:46.067Z,1.19
2023-02-09T10:02:50.582Z,1.29
2023-02-09T10:08:14.816Z,1.30
2023-02-09T10:13:25.872Z,1.40
2023-02-09T10:18:38.143Z,1.57
2023-02-09T10:23:45.787Z,1.75
2023-02-09T10:28:55.871Z,1.92
2023-02-09T10:34:11.924Z,2.02
2023-02-09T10:39:25.523Z,2.00
2023-02-09T10:44:35.652Z,2.19
2023-02-09T10:49:43.196Z,2.37
2023-02-09T10:54:54.041Z,2.45
2023-02-09T11:00:01.106Z,2.53
2023-02-09T11:05:23.358Z,2.73
2023-02-09T11:10:27.377Z,2.64
2023-02-09T11:15:38.734Z,2.70
2023-02-09T11:20:59.873Z,2.74
2023-02-09T11:26:10.216Z,2.82
2023-02-09T11:31:31.807Z,2.93
2023-02-09T11:36:58.248Z,2.97
2023-02-09T11:42:22.289Z,3.04
2023-02-09T11:47:52.229Z,3.16
2023-02-09T11:53:00.650Z,3.20
2023-02-09T11:58:40.733Z,3.30
2023-02-09T12:03:56.101Z,3.22
2023-02-09T12:09:05.526Z,3.33
2023-02-09T12:14:28.632Z,3.30
2023-02-09T12:19:35.863Z,3.32
2023-02-09T12:24:39.890Z,3.40
2023-02-09T12:29:41.756Z,3.43
2023-02-09T12:34:49.687Z,3.39
2023-02-09T12:40:18.406Z,3.45
2023-02-09T12:45:39.620Z,3.58
2023-02-09T12:50:47.362Z,3.96
2023-02-09T12:56:04.707Z,4.00
2023-02-09T13:01:08.932Z,4.28
2023-02-09T13:06:27.361Z,4.29
2023-02-09T13:11:49.908Z,4.30
2023-02-09T13:17:09.728Z,4.27
2023-02-09T13:22:32.833Z,4.09
2023-02-09T13:27:47.106Z,4.07
2023-02-09T13:33:12.425Z,3.94
2023-02-09T13:38:16.825Z,3.84
2023-02-09T13:43:27.370Z,3.82
2023-02-09T13:48:37.529Z,3.74
2023-02-09T13:53:39.506Z,3.72
2023-02-09T13:58:41.341Z,3.64
2023-02-09T14:03:57.455Z,3.62
2023-02-09T14:09:00.652Z,3.58
2023-02-09T14:14:10.085Z,3.55
2023-02-09T14:19:31.904Z,3.54
2023-02-09T14:24:45.488Z,3.48
2023-02-09T14:29:48.397Z,3.42
2023-02-09T14:34:52.499Z,3.36
2023-02-09T14:40:02.136Z,3.42
2023-02-09T14:45:12.988Z,3.38
2023-02-09T14:50:17.245Z,3.35
2023-02-09T14:55:33.572Z,3.36
2023-02-09T15:00:37.843Z,3.32
2023-02-09T15:05:42.350Z,3.30
2023-02-09T15:10:47.200Z,3.28
2023-02-09T15:15:51.215Z,3.35
2023-02-09T15:20:53.886Z,3.36
2023-02-09T15:25:58.394Z,3.33
2023-02-09T15:31:00.388Z,3.28
2023-02-09T15:36:02.419Z,3.27
2023-02-09T15:41:27.924Z,3.26
2023-02-09T15:46:48.290Z,3.45
2023-02-09T15:51:59.109Z,3.31
2023-02-09T15:57:01.194Z,3.20
2023-02-09T16:02:03.456Z,3.13
2023-02-09T16:07:15.285Z,3.24
2023-02-09T16:12:17.109Z,3.18
2023-02-09T16:17:21.051Z,3.11
2023-02-09T16:22:25.121Z,3.07
2023-02-09T16:27:28.502Z,3.03
2023-02-09T16:32:32.506Z,2.97
2023-02-09T16:37:36.686Z,2.93
2023-02-09T16:42:48.507Z,2.89
2023-02-09T16:47:57.173Z,2.88
2023-02-09T16:53:03.601Z,3.09
2023-02-09T16:58:05.860Z,3.03
2023-02-09T17:03:15.448Z,2.99
2023-02-09T17:08:24.929Z,2.98
2023-02-09T17:13:27.063Z,2.95
2023-02-09T17:18:33.501Z,2.92
2023-02-09T17:23:38.506Z,2.91
2023-02-09T17:28:41.367Z,2.89
2023-02-09T17:33:46.788Z,2.88
2023-02-09T17:38:48.584Z,2.88
2023-02-09T17:43:52.895Z,2.86
2023-02-09T17:48:54.606Z,2.85
2023-02-09T17:54:01.084Z,2.85
2023-02-09T17:59:08.267Z,2.86
2023-02-09T18:04:20.870Z,2.87
2023-02-09T18:09:27.516Z,2.89
2023-02-09T18:14:34.352Z,2.91
2023-02-09T18:19:36.105Z,2.92
2023-02-09T18:24:39.860Z,2.93
2023-02-09T18:29:44.028Z,2.98
2023-02-09T18:34:48.609Z,3.00
2023-02-09T18:39:52.356Z,3.00
2023-02-09T18:44:56.327Z,3.00
2023-02-09T18:50:01.560Z,2.98
2023-02-09T18:55:10.469Z,2.99
2023-02-09T19:00:15.120Z,2.89
2023-02-09T19:05:20.824Z,2.79
2023-02-09T19:10:33.370Z,2.77
2023-02-09T19:15:36.305Z,2.76
2023-02-09T19:20:39.247Z,2.77
2023-02-09T19:25:41.183Z,2.78
2023-02-09T19:30:43.015Z,2.83
2023-02-09T19:35:58.283Z,2.87
2023-02-09T19:41:10.672Z,2.86
2023-02-09T19:46:15.053Z,2.86
2023-02-09T19:51:17.893Z,2.89
2023-02-09T19:56:32.142Z,2.87
2023-02-09T20:01:34.532Z,2.87
2023-02-09T20:06:38.530Z,2.89
2023-02-09T20:11:41.543Z,2.89
2023-02-09T20:16:43.314Z,2.91
2023-02-09T20:21:47.562Z,2.89
2023-02-09T20:26:49.245Z,2.87
2023-02-09T20:31:56.098Z,2.88
2023-02-09T20:36:57.841Z,2.88
2023-02-09T20:42:18.219Z,2.88
2023-02-09T20:47:22.035Z,2.92
2023-02-09T20:52:23.744Z,2.98
2023-02-09T20:57:29.665Z,3.00
2023-02-09T21:02:36.547Z,2.93
2023-02-09T21:07:40.530Z,2.94
2023-02-09T21:12:46.568Z,2.95
2023-02-09T21:17:51.729Z,2.97
2023-02-09T21:22:53.479Z,2.96
2023-02-09T21:27:59.765Z,2.92
2023-02-09T21:33:03.767Z,2.92
2023-02-09T21:38:11.666Z,2.94
2023-02-09T21:43:15.663Z,2.96
2023-02-09T21:48:17.371Z,2.96
2023-02-09T21:53:23.765Z,2.98
2023-02-09T21:58:25.609Z,3.02
2023-02-09T22:03:29.510Z,3.04
2023-02-09T22:08:31.336Z,3.07
2023-02-09T22:13:33.434Z,3.07
2023-02-09T22:18:36.286Z,3.05
2023-02-09T22:23:40.276Z,3.07
2023-02-09T22:28:42.697Z,3.08
2023-02-09T22:33:45.008Z,3.07
2023-02-09T22:38:46.773Z,3.06
2023-02-09T22:43:56.325Z,3.01
2023-02-09T22:49:01.869Z,2.99
2023-02-09T22:54:06.663Z,2.98
2023-02-09T22:59:08.777Z,2.99
2023-02-09T23:04:15.168Z,2.95
2023-02-09T23:09:17.798Z,2.95
2023-02-09T23:14:19.649Z,2.95
2023-02-09T23:19:21.714Z,2.95
2023-02-09T23:24:28.710Z,2.95
2023-02-09T23:29:33.057Z,2.95
2023-02-09T23:34:37.815Z,2.96
2023-02-09T23:39:41.593Z,2.97
2023-02-09T23:44:47.857Z,2.95
2023-02-09T23:49:59.360Z,2.97
2023-02-09T23:55:04.938Z,2.97
